Time;durP1;ratioP1;P1;durP2;ratioP2;P2;SDS_P1;SDS_P2;PMS_P1;PMS_P2;Temp;Humidity;BMP_temperature;BMP_pressure;BME280_temperature;BME280_humidity;BME280_pressure;Samples;Min_cycle;Max_cycle;Signal;HPM_P1;HPM_P2
2023/09/07 00:02:04;;;;;;;;;;;;;;;18.52;100.00;101829.38;5007524;28;19913;-76
2023/09/07 00:04:29;;;;;;;;;;;;;;;18.56;100.00;101827.94;5019248;28;19910;-76
2023/09/07 00:06:54;;;;;;;;;;;;;;;18.41;100.00;101820.91;5016901;28;19913;-76
2023/09/07 00:09:21;;;;;;;;;;;;;;;18.39;100.00;101823.78;5014316;28;19912;-76
2023/09/07 00:11:47;;;;;;;;;;;;;;;18.33;100.00;101838.06;5015407;28;19973;-76
2023/09/07 00:14:12;;;;;;;;;;;;;;;18.28;100.00;101841.31;5022530;28;19948;-77
2023/09/07 00:16:38;;;;;;;;;;;;;;;18.19;100.00;101820.84;5015609;28;19920;-77
2023/09/07 00:19:03;;;;;;;;;;;;;;;18.06;100.00;101836.84;5016130;28;19960;-76
2023/09/07 00:21:29;;;;;;;;;;;;;;;18.29;100.00;101834.06;4991642;28;20019;-77
2023/09/07 00:23:55;;;;;;;;;;;;;;;18.11;100.00;101839.84;5028205;28;19913;-77
2023/09/07 00:26:20;;;;;;;;;;;;;;;18.16;100.00;101820.34;5028155;28;20576;-76
2023/09/07 00:28:46;;;;;;;;;;;;;;;18.21;100.00;101850.38;5020918;28;19913;-76
2023/09/07 00:31:11;;;;;;;;;;;;;;;18.06;100.00;101840.38;5019174;28;20777;-77
2023/09/07 00:33:37;;;;;;;;;;;;;;;18.10;100.00;101871.44;5016829;28;20372;-76
2023/09/07 00:36:03;;;;;;;;;;;;;;;18.01;100.00;101864.44;5026409;28;19921;-77
2023/09/07 00:38:28;;;;;;;;;;;;;;;18.02;100.00;101871.50;5016674;28;20273;-76
2023/09/07 00:40:53;;;;;;;;;;;;;;;17.93;100.00;101853.69;5019977;28;19917;-76
2023/09/07 00:43:19;;;;;;;;;;;;;;;17.89;100.00;101860.50;5018343;28;19920;-76
2023/09/07 00:45:44;;;;;;;;;;;;;;;17.75;100.00;101853.16;5014314;28;19920;-76
2023/09/07 00:48:11;;;;;;;;;;;;;;;17.61;100.00;101882.66;5022589;28;19912;-76
2023/09/07 00:50:36;;;;;;;;;;;;;;;17.61;100.00;101893.47;5006857;28;20291;-76
2023/09/07 00:53:03;;;;;;;;;;;;;;;17.79;100.00;101898.53;5003990;28;19921;-76
2023/09/07 00:55:32;;;;;;;;;;;;;;;17.76;100.00;101871.06;5009181;28;19913;-76
2023/09/07 00:57:57;;;;;;;;;;;;;;;17.70;100.00;101851.88;5015732;28;20269;-76
2023/09/07 01:00:23;;;;;;;;;;;;;;;17.73;100.00;101867.69;5001100;28;19925;-76
2023/09/07 01:02:48;;;;;;;;;;;;;;;17.72;100.00;101865.16;5014576;28;19952;-76
2023/09/07 01:05:13;;;;;;;;;;;;;;;17.72;100.00;101866.03;5013334;28;19912;-76
2023/09/07 01:07:47;;;;;;;;;;;;;;;17.69;100.00;101869.06;5024469;28;20256;-77
2023/09/07 01:10:13;;;;;;;;;;;;;;;17.63;100.00;101869.81;5014721;28;20024;-76
2023/09/07 01:12:39;;;;;;;;;;;;;;;17.50;100.00;101873.13;5014246;28;20007;-76
2023/09/07 01:15:05;;;;;;;;;;;;;;;17.55;100.00;101890.63;5017715;28;19941;-76
2023/09/07 01:17:30;;;;;;;;;;;;;;;17.56;100.00;101876.09;5022725;28;19959;-76
2023/09/07 01:19:57;;;;;;;;;;;;;;;17.28;100.00;101866.72;5009743;28;20346;-76
2023/09/07 01:22:23;;;;;;;;;;;;;;;17.26;100.00;101874.16;5018047;28;19955;-76
2023/09/07 01:24:49;;;;;;;;;;;;;;;17.59;100.00;101887.41;5006015;28;19913;-76
2023/09/07 01:27:15;;;;;;;;;;;;;;;17.29;100.00;101881.03;5018909;28;20260;-76
2023/09/07 01:29:40;;;;;;;;;;;;;;;17.09;100.00;101880.66;5019055;28;19959;-76
2023/09/07 01:32:05;;;;;;;;;;;;;;;17.15;100.00;101917.72;5019050;28;19963;-76
2023/09/07 01:34:31;;;;;;;;;;;;;;;17.12;100.00;101917.25;5012167;28;20298;-77
2023/09/07 01:36:56;;;;;;;;;;;;;;;17.14;100.00;101910.66;5025736;28;19916;-76
2023/09/07 01:39:21;;;;;;;;;;;;;;;17.42;100.00;101919.09;5009899;28;20897;-76
2023/09/07 01:41:47;;;;;;;;;;;;;;;16.98;100.00;101883.78;5025823;28;19917;-77
2023/09/07 01:44:14;;;;;;;;;;;;;;;16.81;100.00;101912.66;4991180;28;20284;-76
2023/09/07 01:46:39;;;;;;;;;;;;;;;16.72;100.00;101922.63;4989625;28;19945;-76
2023/09/07 01:49:04;;;;;;;;;;;;;;;16.70;100.00;101929.22;4990632;28;19914;-76
2023/09/07 01:51:29;;;;;;;;;;;;;;;16.66;100.00;101926.00;5006786;28;19914;-76
2023/09/07 01:53:55;;;;;;;;;;;;;;;16.63;100.00;101935.28;5006634;28;20389;-77
2023/09/07 01:56:20;;;;;;;;;;;;;;;16.64;100.00;101933.44;5006305;28;19919;-77
2023/09/07 01:58:45;;;;;;;;;;;;;;;16.63;100.00;101934.44;5006528;28;21213;-76
2023/09/07 02:01:24;;;;;;;;;;;;;;;16.64;100.00;101939.66;5006611;28;20676;-77
2023/09/07 02:03:49;;;;;;;;;;;;;;;16.60;100.00;101932.94;5006159;28;20459;-76
2023/09/07 02:06:14;;;;;;;;;;;;;;;16.53;100.00;101934.66;4989830;28;20016;-76
2023/09/07 02:08:40;;;;;;;;;;;;;;;16.55;100.00;101931.78;4990223;28;19914;-76
2023/09/07 02:11:05;;;;;;;;;;;;;;;16.56;100.00;101933.47;4990599;28;19913;-76
2023/09/07 02:13:30;;;;;;;;;;;;;;;16.51;100.00;101936.69;5006009;28;19913;-76
2023/09/07 02:15:56;;;;;;;;;;;;;;;16.45;100.00;101937.34;5007750;28;20384;-76
2023/09/07 02:18:22;;;;;;;;;;;;;;;16.41;100.00;101934.19;5006446;28;19917;-78
2023/09/07 02:20:47;;;;;;;;;;;;;;;16.39;100.00;101940.75;5007447;28;19929;-79
2023/09/07 02:23:12;;;;;;;;;;;;;;;16.36;100.00;101946.47;5006110;28;20467;-78
2023/09/07 02:25:37;;;;;;;;;;;;;;;16.30;100.00;101939.09;5007130;28;19909;-76
2023/09/07 02:28:03;;;;;;;;;;;;;;;16.27;100.00;101944.81;5006107;28;19917;-77
2023/09/07 02:30:28;;;;;;;;;;;;;;;16.29;100.00;101948.16;5006107;28;19916;-76
2023/09/07 02:32:53;;;;;;;;;;;;;;;16.30;100.00;101937.22;5005496;28;19913;-76
2023/09/07 02:35:19;;;;;;;;;;;;;;;16.28;100.00;101933.03;5006203;28;20375;-77
2023/09/07 02:37:44;;;;;;;;;;;;;;;16.26;100.00;101943.97;5006760;28;19996;-76
2023/09/07 02:40:10;;;;;;;;;;;;;;;16.24;100.00;101946.00;5006042;28;19928;-76
2023/09/07 02:42:35;;;;;;;;;;;;;;;16.25;100.00;101953.91;5005526;28;19920;-77
2023/09/07 02:45:01;;;;;;;;;;;;;;;16.23;100.00;101944.31;5006252;28;19940;-76
2023/09/07 02:47:27;;;;;;;;;;;;;;;16.21;100.00;101952.56;5005754;28;19924;-76
2023/09/07 02:49:52;;;;;;;;;;;;;;;16.19;100.00;101938.41;5005566;28;20442;-78
2023/09/07 02:52:17;;;;;;;;;;;;;;;16.18;100.00;101947.53;4989440;28;19925;-78
2023/09/07 02:54:43;;;;;;;;;;;;;;;16.15;100.00;101950.53;5005976;28;19916;-76
2023/09/07 02:57:08;;;;;;;;;;;;;;;16.15;100.00;101941.63;5006636;28;19967;-77
2023/09/07 02:59:33;;;;;;;;;;;;;;;16.07;100.00;101944.34;5005846;28;19914;-77
2023/09/07 03:01:59;;;;;;;;;;;;;;;16.02;100.00;101944.84;5005597;28;19948;-76
2023/09/07 03:04:24;;;;;;;;;;;;;;;15.98;100.00;101938.94;5005565;28;19909;-76
2023/09/07 03:06:50;;;;;;;;;;;;;;;15.96;100.00;101940.97;5005075;28;19921;-76
2023/09/07 03:09:15;;;;;;;;;;;;;;;15.97;100.00;101945.34;5005711;28;19909;-75
2023/09/07 03:11:41;;;;;;;;;;;;;;;15.95;100.00;101939.28;5005232;28;19913;-76
2023/09/07 03:14:07;;;;;;;;;;;;;;;15.93;100.00;101948.53;5004196;28;19917;-78
2023/09/07 03:16:33;;;;;;;;;;;;;;;15.97;100.00;101953.44;5003856;28;19919;-76
2023/09/07 03:18:58;;;;;;;;;;;;;;;16.00;100.00;101960.31;4989336;28;21887;-77
2023/09/07 03:21:29;;;;;;;;;;;;;;;15.98;100.00;101955.09;5005956;28;20419;-76
2023/09/07 03:23:56;;;;;;;;;;;;;;;15.96;100.00;101962.50;5005889;28;19940;-76
2023/09/07 03:26:21;;;;;;;;;;;;;;;15.98;100.00;101962.34;5005384;28;19909;-76
2023/09/07 03:28:49;;;;;;;;;;;;;;;16.06;100.00;101964.19;5005679;28;19920;-77
2023/09/07 03:31:15;;;;;;;;;;;;;;;16.04;100.00;101965.22;5006940;28;20004;-76
2023/09/07 03:33:40;;;;;;;;;;;;;;;16.03;100.00;101971.59;5005848;28;20011;-77
2023/09/07 03:36:05;;;;;;;;;;;;;;;16.03;100.00;101962.66;5005032;28;20008;-76
2023/09/07 03:38:31;;;;;;;;;;;;;;;15.98;100.00;101957.78;5005253;28;19920;-77
2023/09/07 03:40:56;;;;;;;;;;;;;;;15.92;100.00;101963.88;5038515;28;20704;-76
2023/09/07 03:43:21;;;;;;;;;;;;;;;15.88;100.00;101959.00;5005406;28;19913;-76
2023/09/07 03:45:47;;;;;;;;;;;;;;;15.85;100.00;101962.88;5005167;28;19949;-79
2023/09/07 03:48:12;;;;;;;;;;;;;;;15.83;100.00;101963.03;4989106;28;19952;-78
2023/09/07 03:50:38;;;;;;;;;;;;;;;15.81;100.00;101967.72;5005396;28;19921;-76
2023/09/07 03:53:03;;;;;;;;;;;;;;;15.80;100.00;101970.56;5005283;28;19917;-77
2023/09/07 03:55:28;;;;;;;;;;;;;;;15.78;100.00;101972.59;5005337;28;19936;-76
2023/09/07 03:57:54;;;;;;;;;;;;;;;15.76;100.00;101977.31;5004636;28;19920;-76
2023/09/07 04:00:19;;;;;;;;;;;;;;;15.74;100.00;101979.34;5005211;28;19969;-76
2023/09/07 04:02:47;;;;;;;;;;;;;;;15.75;100.00;101983.69;5005036;28;20795;-77
2023/09/07 04:05:13;;;;;;;;;;;;;;;15.72;100.00;101978.66;5005281;28;19918;-77
2023/09/07 04:07:38;;;;;;;;;;;;;;;15.69;100.00;101978.97;5004516;28;19913;-77
2023/09/07 04:10:04;;;;;;;;;;;;;;;15.66;100.00;101973.91;5005243;28;20549;-77
2023/09/07 04:12:31;;;;;;;;;;;;;;;15.65;100.00;101974.91;5003067;28;19917;-76
2023/09/07 04:14:56;;;;;;;;;;;;;;;15.63;100.00;101981.28;4987810;28;19916;-76
2023/09/07 04:17:21;;;;;;;;;;;;;;;15.61;100.00;101988.69;5006464;28;19917;-76
2023/09/07 04:19:48;;;;;;;;;;;;;;;15.63;100.00;101983.16;5004237;28;19918;-77
2023/09/07 04:22:13;;;;;;;;;;;;;;;15.60;100.00;101986.19;5007462;28;19959;-78
2023/09/07 04:24:38;;;;;;;;;;;;;;;15.59;100.00;101989.88;4987224;28;19910;-76
2023/09/07 04:27:04;;;;;;;;;;;;;;;15.60;100.00;101989.72;5007003;28;19913;-76
2023/09/07 04:29:31;;;;;;;;;;;;;;;15.61;100.00;101996.75;5004345;28;20538;-78
2023/09/07 04:31:57;;;;;;;;;;;;;;;15.64;100.00;101995.63;5007659;28;19964;-79
2023/09/07 04:34:23;;;;;;;;;;;;;;;15.64;100.00;101995.63;5007269;28;20200;-77
2023/09/07 04:36:49;;;;;;;;;;;;;;;15.63;100.00;101989.38;5004445;28;19941;-76
2023/09/07 04:39:15;;;;;;;;;;;;;;;15.64;100.00;101995.63;5007127;28;20360;-76
2023/09/07 04:41:40;;;;;;;;;;;;;;;15.67;100.00;101997.13;5004298;28;19940;-76
2023/09/07 04:44:06;;;;;;;;;;;;;;;15.70;100.00;102003.03;5006972;28;19914;-76
2023/09/07 04:46:31;;;;;;;;;;;;;;;15.73;100.00;101996.47;5003119;28;19970;-76
2023/09/07 04:48:56;;;;;;;;;;;;;;;15.73;100.00;101993.78;5004606;28;19956;-78
2023/09/07 04:51:23;;;;;;;;;;;;;;;15.75;100.00;102005.25;4990543;28;19921;-78
2023/09/07 04:53:49;;;;;;;;;;;;;;;15.73;100.00;102012.63;5003175;28;19956;-76
2023/09/07 04:56:15;;;;;;;;;;;;;;;15.72;100.00;102010.97;4989405;28;19971;-76
2023/09/07 04:58:41;;;;;;;;;;;;;;;15.77;100.00;102008.63;5007734;28;19913;-76
2023/09/07 05:01:10;;;;;;;;;;;;;;;15.85;100.00;102026.63;5005346;28;19921;-77
2023/09/07 05:03:37;;;;;;;;;;;;;;;15.86;100.00;102021.09;5000814;28;19913;-77
2023/09/07 05:06:03;;;;;;;;;;;;;;;15.92;100.00;102016.88;4991132;28;20292;-78
2023/09/07 05:08:29;;;;;;;;;;;;;;;15.97;100.00;102023.47;5007518;28;19942;-76
2023/09/07 05:10:54;;;;;;;;;;;;;;;16.08;100.00;102026.81;5007551;28;19913;-77
2023/09/07 05:13:20;;;;;;;;;;;;;;;16.14;100.00;102027.00;5007727;28;19910;-77
2023/09/07 05:15:49;;;;;;;;;;;;;;;16.17;100.00;102020.44;5007287;28;19913;-76
2023/09/07 05:18:14;;;;;;;;;;;;;;;16.16;100.00;102026.84;5007852;28;20295;-76
2023/09/07 05:20:40;;;;;;;;;;;;;;;16.49;100.00;102034.91;5007667;28;19917;-77
2023/09/07 05:23:06;;;;;;;;;;;;;;;16.36;100.00;102013.84;5008001;28;19909;-76
2023/09/07 05:25:31;;;;;;;;;;;;;;;16.27;100.00;102021.09;5007491;28;20786;-77
2023/09/07 05:27:57;;;;;;;;;;;;;;;16.59;100.00;102035.56;5006485;28;20390;-77
2023/09/07 05:30:22;;;;;;;;;;;;;;;16.69;100.00;102036.19;5007726;28;19921;-78
2023/09/07 05:32:47;;;;;;;;;;;;;;;16.60;100.00;102031.84;4990617;28;19909;-77
2023/09/07 05:35:15;;;;;;;;;;;;;;;16.71;100.00;102031.50;4990689;28;19913;-77
2023/09/07 05:37:41;;;;;;;;;;;;;;;16.79;100.00;102023.41;5006117;28;19913;-76
2023/09/07 05:40:07;;;;;;;;;;;;;;;16.84;100.00;102017.50;5007169;28;20149;-76
2023/09/07 05:42:32;;;;;;;;;;;;;;;16.97;100.00;102027.75;5006250;28;20066;-78
2023/09/07 05:44:57;;;;;;;;;;;;;;;17.11;100.00;102018.91;5008383;28;20327;-77
2023/09/07 05:47:25;;;;;;;;;;;;;;;17.20;100.00;102009.78;4991894;23;19921;-89
2023/09/07 05:49:51;;;;;;;;;;;;;;;17.61;100.00;102019.53;4975660;28;19921;-88
2023/09/07 05:52:16;;;;;;;;;;;;;;;17.51;100.00;102003.53;4977445;28;20269;-87
2023/09/07 05:54:41;;;;;;;;;;;;;;;17.78;100.00;102004.06;4968720;28;20134;-88
2023/09/07 05:57:08;;;;;;;;;;;;;;;19.40;100.00;102011.56;4990033;28;19914;-90
2023/09/07 05:59:33;;;;;;;;;;;;;;;20.41;100.00;101961.88;4983529;28;19940;-88
2023/09/07 06:01:58;;;;;;;;;;;;;;;20.42;100.00;101863.22;4976920;28;20004;-87
2023/09/07 06:04:24;;;;;;;;;;;;;;;21.19;100.00;101844.91;4986068;28;19918;-88
2023/09/07 06:06:50;;;;;;;;;;;;;;;22.18;100.00;101748.06;4963056;28;20379;-88
2023/09/07 06:09:15;;;;;;;;;;;;;;;22.68;100.00;101606.72;4984318;28;20406;-87
2023/09/07 06:11:41;;;;;;;;;;;;;;;23.09;100.00;101459.09;4960591;28;19910;-88
2023/09/07 06:14:07;;;;;;;;;;;;;;;22.77;100.00;101312.22;4986158;28;19924;-89
2023/09/07 06:16:32;;;;;;;;;;;;;;;22.64;100.00;101404.97;4963662;28;20296;-88
2023/09/07 06:18:57;;;;;;;;;;;;;;;23.32;100.00;101335.81;4973708;28;19913;-88
2023/09/07 06:21:23;;;;;;;;;;;;;;;23.04;100.00;101178.50;4967307;28;19910;-88
2023/09/07 06:23:50;;;;;;;;;;;;;;;23.44;100.00;101158.72;4976892;28;19918;-88
2023/09/07 06:26:17;;;;;;;;;;;;;;;22.61;100.00;101209.47;4967877;28;19918;-88
2023/09/07 06:28:43;;;;;;;;;;;;;;;22.29;100.00;101258.66;4974022;28;20012;-88
2023/09/07 06:31:09;;;;;;;;;;;;;;;22.58;100.00;101377.81;4969864;28;20352;-88
2023/09/07 06:33:34;;;;;;;;;;;;;;;23.56;100.00;101327.66;4982537;28;20008;-88
2023/09/07 06:36:02;;;;;;;;;;;;;;;22.89;100.00;101042.78;4986776;28;19914;-88
2023/09/07 06:38:27;;;;;;;;;;;;;;;22.31;100.00;101226.63;4970228;28;19936;-89
2023/09/07 06:40:53;;;;;;;;;;;;;;;22.75;100.00;101281.69;4978665;28;20427;-88
2023/09/07 06:43:19;;;;;;;;;;;;;;;22.76;100.00;101332.34;4976835;28;19914;-88
2023/09/07 06:45:45;;;;;;;;;;;;;;;22.81;100.00;101306.34;4989536;28;19909;-86
2023/09/07 06:48:10;;;;;;;;;;;;;;;23.07;100.00;101343.28;4960057;28;19915;-88
2023/09/07 06:50:36;;;;;;;;;;;;;;;22.84;100.00;101333.09;4970332;28;20236;-89
2023/09/07 06:53:01;;;;;;;;;;;;;;;22.63;100.00;101456.88;4959835;28;19920;-88
2023/09/07 06:55:28;;;;;;;;;;;;;;;22.81;100.00;101401.63;4990085;28;19920;-88
2023/09/07 06:57:53;;;;;;;;;;;;;;;23.06;100.00;101390.63;4965027;28;19910;-88
2023/09/07 07:00:19;;;;;;;;;;;;;;;23.02;100.00;101439.28;4981695;28;19918;-88
2023/09/07 07:02:44;;;;;;;;;;;;;;;23.41;100.00;101425.34;4967918;28;19915;-86
2023/09/07 07:05:10;;;;;;;;;;;;;;;23.53;100.00;101355.38;4974631;28;19913;-86
2023/09/07 07:07:38;;;;;;;;;;;;;;;23.34;100.00;101230.16;4960469;28;19961;-86
2023/09/07 07:10:05;;;;;;;;;;;;;;;24.02;100.00;101343.25;4962829;28;19921;-86
2023/09/07 07:12:34;;;;;;;;;;;;;;;24.28;100.00;101190.19;4985339;28;19910;-86
2023/09/07 07:15:01;;;;;;;;;;;;;;;23.65;100.00;101142.78;4981477;28;19914;-86
2023/09/07 07:17:26;;;;;;;;;;;;;;;23.69;100.00;101210.22;4966620;28;19911;-86
2023/09/07 07:19:52;;;;;;;;;;;;;;;23.92;100.00;101353.91;4971843;28;19985;-86
2023/09/07 07:22:17;;;;;;;;;;;;;;;23.85;100.00;101260.50;4982065;28;19925;-86
2023/09/07 07:24:43;;;;;;;;;;;;;;;24.15;100.00;101207.69;4977373;28;19961;-86
2023/09/07 07:27:08;;;;;;;;;;;;;;;23.48;100.00;101282.50;4984259;28;19914;-86
2023/09/07 07:29:34;;;;;;;;;;;;;;;24.28;100.00;101310.25;4977454;28;19920;-90
2023/09/07 07:32:00;;;;;;;;;;;;;;;23.15;100.00;101343.78;4972654;28;19914;-87
2023/09/07 07:34:26;;;;;;;;;;;;;;;24.04;100.00;101404.91;4972706;28;19910;-88
2023/09/07 07:36:51;;;;;;;;;;;;;;;24.56;100.00;101364.09;4980302;28;19913;-88
2023/09/07 07:39:16;;;;;;;;;;;;;;;24.38;100.00;101264.09;4967782;28;19922;-88
2023/09/07 07:41:42;;;;;;;;;;;;;;;24.71;100.00;101225.19;4972637;28;19918;-88
2023/09/07 07:44:08;;;;;;;;;;;;;;;24.44;100.00;101181.22;4978860;28;19976;-90
2023/09/07 07:46:33;;;;;;;;;;;;;;;23.30;100.00;101258.09;4976470;28;20398;-90
2023/09/07 07:48:59;;;;;;;;;;;;;;;23.22;100.00;101443.66;4969449;28;19914;-91
2023/09/07 07:51:24;;;;;;;;;;;;;;;23.93;100.00;101434.66;4957339;28;20013;-90
2023/09/07 07:53:50;;;;;;;;;;;;;;;24.01;100.00;101229.75;4954686;28;19910;-90
2023/09/07 07:56:18;;;;;;;;;;;;;;;23.80;100.00;101222.22;4964889;28;20073;-91
2023/09/07 07:58:44;;;;;;;;;;;;;;;23.44;100.00;101335.81;4965085;28;19920;-90
2023/09/07 08:01:15;;;;;;;;;;;;;;;24.15;100.00;101485.91;4972607;28;19918;-89
2023/09/07 08:03:40;;;;;;;;;;;;;;;24.91;100.00;101404.97;4959327;28;19937;-93
2023/09/07 08:06:06;;;;;;;;;;;;;;;25.45;100.00;101336.28;4960110;28;20544;-90
2023/09/07 08:08:31;;;;;;;;;;;;;;;25.84;100.00;101233.28;4975406;28;20619;-89
2023/09/07 08:10:58;;;;;;;;;;;;;;;24.49;100.00;101183.25;4964757;28;19916;-88
2023/09/07 08:13:23;;;;;;;;;;;;;;;25.39;100.00;101247.94;4979600;28;19913;-88
2023/09/07 08:15:48;;;;;;;;;;;;;;;25.77;100.00;101114.22;4970172;28;20000;-89
2023/09/07 08:18:14;;;;;;;;;;;;;;;26.63;100.00;101077.94;4984143;28;19917;-89
2023/09/07 08:20:41;;;;;;;;;;;;;;;26.35;100.00;100849.97;4989545;28;19914;-90
2023/09/07 08:23:08;;;;;;;;;;;;;;;26.92;100.00;100942.25;4973366;28;19914;-89
2023/09/07 08:25:33;;;;;;;;;;;;;;;27.17;100.00;100831.13;4972180;28;19932;-88
2023/09/07 08:27:59;;;;;;;;;;;;;;;27.65;96.12;100707.50;4975593;28;20423;-89
2023/09/07 08:30:25;;;;;;;;;;;;;;;27.68;97.34;100795.53;4987233;28;19921;-86
2023/09/07 08:32:51;;;;;;;;;;;;;;;27.88;94.13;100648.50;4977404;28;19914;-87
2023/09/07 08:35:17;;;;;;;;;;;;;;;28.22;88.93;100387.06;4987477;28;19920;-88
2023/09/07 08:37:43;;;;;;;;;;;;;;;28.32;87.34;100373.22;4967248;28;19921;-87
2023/09/07 08:40:08;;;;;;;;;;;;;;;28.03;87.92;100408.91;4968270;28;20271;-87
2023/09/07 08:42:37;;;;;;;;;;;;;;;28.42;89.11;100628.44;4975509;28;19913;-87
2023/09/07 08:45:06;;;;;;;;;;;;;;;27.81;86.58;100370.91;4975604;28;19909;-87
2023/09/07 08:47:32;;;;;;;;;;;;;;;28.88;85.43;100515.47;4984714;28;20772;-87
2023/09/07 08:49:58;;;;;;;;;;;;;;;29.33;83.38;100469.34;4962529;28;19914;-87
2023/09/07 08:52:23;;;;;;;;;;;;;;;28.63;82.75;100324.31;4972376;28;19936;-87
2023/09/07 08:54:49;;;;;;;;;;;;;;;28.56;82.84;100368.59;4972129;28;19910;-87
2023/09/07 08:57:16;;;;;;;;;;;;;;;28.79;81.16;100300.22;4971958;28;20406;-87
2023/09/07 08:59:41;;;;;;;;;;;;;;;29.15;79.73;100286.00;4972388;28;19996;-87
2023/09/07 09:02:08;;;;;;;;;;;;;;;29.24;77.92;100180.59;4971614;28;20021;-88
2023/09/07 09:04:33;;;;;;;;;;;;;;;29.67;76.50;100165.81;4979557;28;19949;-86
2023/09/07 09:07:00;;;;;;;;;;;;;;;29.93;73.45;100008.47;4970612;28;20036;-88
2023/09/07 09:09:25;;;;;;;;;;;;;;;29.51;72.04;99705.25;4978468;28;19994;-86
2023/09/07 09:11:51;;;;;;;;;;;;;;;28.48;73.10;99622.50;4993896;23;19933;-86
2023/09/07 09:14:17;;;;;;;;;;;;;;;29.82;74.74;100308.56;4988746;28;19921;-86
2023/09/07 09:16:49;;;;;;;;;;;;;;;29.97;72.67;100116.78;4993389;28;20378;-86
2023/09/07 09:19:14;;;;;;;;;;;;;;;29.99;69.95;99836.63;4974022;28;19917;-86
2023/09/07 09:21:40;;;;;;;;;;;;;;;29.57;72.31;100080.72;4977190;28;19938;-87
2023/09/07 09:24:09;;;;;;;;;;;;;;;30.19;70.86;100059.06;4967213;28;19914;-86
2023/09/07 09:26:36;;;;;;;;;;;;;;;30.16;70.53;100034.91;4949964;28;19910;-87
2023/09/07 09:29:01;;;;;;;;;;;;;;;30.00;70.05;99956.59;4970332;28;19977;-86
2023/09/07 09:31:26;;;;;;;;;;;;;;;30.31;69.12;99953.13;4971023;28;19918;-86
2023/09/07 09:33:52;;;;;;;;;;;;;;;30.28;68.13;99861.75;4998685;28;20020;-87
2023/09/07 09:36:17;;;;;;;;;;;;;;;28.17;70.97;99598.47;4970965;28;20447;-86
2023/09/07 09:38:47;;;;;;;;;;;;;;;29.59;72.39;100279.25;4955495;28;19924;-86
2023/09/07 09:41:12;;;;;;;;;;;;;;;30.06;70.07;100106.69;4980308;28;20276;-86
2023/09/07 09:43:38;;;;;;;;;;;;;;;29.44;69.65;99845.91;4994718;28;19917;-86
2023/09/07 09:46:04;;;;;;;;;;;;;;;29.93;70.74;100138.63;4954932;28;19929;-86
2023/09/07 09:48:33;;;;;;;;;;;;;;;29.18;70.09;99860.22;4954978;28;19917;-85
2023/09/07 09:50:59;;;;;;;;;;;;;;;29.83;70.85;100147.09;4970028;28;19958;-85
2023/09/07 09:53:27;;;;;;;;;;;;;;;29.78;69.23;99962.84;4971489;28;19914;-86
2023/09/07 09:55:52;;;;;;;;;;;;;;;29.48;69.00;99797.44;4968831;28;19926;-86
2023/09/07 09:58:17;;;;;;;;;;;;;;;29.86;69.80;100108.75;4970850;28;19913;-85
2023/09/07 10:00:44;;;;;;;;;;;;;;;29.99;67.03;99682.53;4967632;28;19925;-85
2023/09/07 10:03:18;;;;;;;;;;;;;;;29.61;69.68;99990.97;4987237;28;20368;-86
2023/09/07 10:05:44;;;;;;;;;;;;;;;28.87;70.15;99807.00;4981750;28;20015;-88
2023/09/07 10:08:12;;;;;;;;;;;;;;;28.45;71.72;99900.34;4970778;28;19914;-88
2023/09/07 10:10:37;;;;;;;;;;;;;;;29.68;71.80;100354.47;5003332;28;19918;-89
2023/09/07 10:13:03;;;;;;;;;;;;;;;30.76;67.78;100156.91;4984180;28;20380;-88
2023/09/07 10:15:29;;;;;;;;;;;;;;;31.54;66.73;100223.69;4971956;28;20463;-88
2023/09/07 10:18:07;;;;;;;;;;;;;;;31.34;64.12;99820.41;4970278;28;20000;-85
2023/09/07 10:20:55;;;;;;;;;;;;;;;30.85;62.87;99507.56;5003297;28;19922;-86
2023/09/07 10:23:21;;;;;;;;;;;;;;;30.40;64.27;99670.38;4968262;28;19921;-86
2023/09/07 10:25:53;;;;;;;;;;;;;;;30.99;62.42;99560.53;4967889;28;19910;-86
2023/09/07 10:28:19;;;;;;;;;;;;;;;31.40;62.43;99796.31;4967503;28;19918;-86
2023/09/07 10:30:45;;;;;;;;;;;;;;;31.01;62.83;99722.81;4996978;28;19996;-86
2023/09/07 10:33:20;;;;;;;;;;;;;;;29.08;65.45;99395.28;4965367;28;20009;-85
2023/09/07 10:35:46;;;;;;;;;;;;;;;29.96;65.07;99779.47;4970002;28;19914;-90
2023/09/07 10:38:13;;;;;;;;;;;;;;;31.23;64.01;100011.31;4969273;28;20100;-89
2023/09/07 10:40:39;;;;;;;;;;;;;;;31.66;61.29;99743.06;4948328;28;20001;-87
2023/09/07 10:43:04;;;;;;;;;;;;;;;31.52;63.57;100008.84;4966789;28;20004;-87
2023/09/07 10:45:30;;;;;;;;;;;;;;;31.34;62.23;99761.72;4953370;28;19965;-86
2023/09/07 10:47:55;;;;;;;;;;;;;;;32.01;61.71;99925.13;4952534;28;19965;-87
2023/09/07 10:50:20;;;;;;;;;;;;;;;32.49;59.78;99819.91;4969275;28;19925;-87
2023/09/07 10:52:46;;;;;;;;;;;;;;;31.54;58.37;99256.34;4969339;28;19918;-86
2023/09/07 10:55:11;;;;;;;;;;;;;;;31.47;58.71;99358.13;4965906;28;19949;-86
2023/09/07 10:57:43;;;;;;;;;;;;;;;30.79;58.82;99231.44;4988770;28;19914;-87
2023/09/07 11:00:10;;;;;;;;;;;;;;;31.01;59.64;99478.34;4969155;28;19945;-86
2023/09/07 11:02:39;;;;;;;;;;;;;;;31.64;58.04;99382.00;4964919;28;19917;-87
2023/09/07 11:05:04;;;;;;;;;;;;;;;31.11;59.50;99422.84;4952828;28;19922;-86
2023/09/07 11:07:30;;;;;;;;;;;;;;;29.52;60.77;99116.56;4968761;28;19916;-86
2023/09/07 11:09:55;;;;;;;;;;;;;;;29.46;60.11;99058.22;4953229;28;19914;-89
2023/09/07 11:12:23;;;;;;;;;;;;;;;29.85;61.12;99325.03;4969007;28;20411;-88
2023/09/07 11:14:49;;;;;;;;;;;;;;;30.44;61.60;99627.31;4966196;28;19918;-89
2023/09/07 11:17:16;;;;;;;;;;;;;;;30.35;61.80;99635.56;4968452;28;19936;-88
2023/09/07 11:19:41;;;;;;;;;;;;;;;29.65;61.19;99200.78;4968171;28;20542;-89
2023/09/07 11:22:09;;;;;;;;;;;;;;;29.36;62.57;99327.94;4968870;28;20009;-89
2023/09/07 11:24:37;;;;;;;;;;;;;;;29.85;63.05;99650.47;4968887;28;20017;-89
2023/09/07 11:27:03;;;;;;;;;;;;;;;30.34;61.43;99562.34;4988156;28;20307;-89
2023/09/07 11:29:31;;;;;;;;;;;;;;;31.42;60.55;99810.56;4973149;28;19914;-86
2023/09/07 11:32:05;;;;;;;;;;;;;;;31.16;59.18;99454.13;4988823;28;19914;-88
2023/09/07 11:34:30;;;;;;;;;;;;;;;31.10;58.15;99302.72;4967308;28;20368;-89
2023/09/07 11:36:55;;;;;;;;;;;;;;;31.38;58.93;99525.53;4974951;28;19924;-86
2023/09/07 11:39:21;;;;;;;;;;;;;;;31.67;57.31;99457.75;4971778;28;20399;-88
2023/09/07 11:41:46;;;;;;;;;;;;;;;32.10;57.71;99620.34;4969103;28;19914;-89
2023/09/07 11:44:11;;;;;;;;;;;;;;;31.55;56.15;99199.22;4972680;28;20021;-89
2023/09/07 11:46:37;;;;;;;;;;;;;;;31.15;55.99;99022.56;4982170;28;19918;-87
2023/09/07 11:49:04;;;;;;;;;;;;;;;31.36;56.88;99260.38;4987410;28;19945;-86
2023/09/07 11:51:29;;;;;;;;;;;;;;;31.67;56.56;99325.34;4988560;28;19966;-86
2023/09/07 11:53:55;;;;;;;;;;;;;;;31.52;57.06;99432.38;4972015;28;19910;-86
2023/09/07 11:56:20;;;;;;;;;;;;;;;31.61;56.12;99290.81;4971838;28;19985;-86
2023/09/07 11:58:45;;;;;;;;;;;;;;;29.63;60.58;99282.78;4956850;28;19957;-87
2023/09/07 12:01:11;;;;;;;;;;;;;;;31.06;59.24;99640.75;4950996;28;20262;-86
2023/09/07 12:03:36;;;;;;;;;;;;;;;31.19;56.94;99305.44;4953376;28;19957;-87
2023/09/07 12:06:02;;;;;;;;;;;;;;;30.66;56.76;99012.16;4955636;28;19924;-87
2023/09/07 12:08:28;;;;;;;;;;;;;;;30.20;58.01;99086.31;4971716;28;19914;-87
2023/09/07 12:10:53;;;;;;;;;;;;;;;30.45;59.12;99431.47;4949750;28;19918;-87
2023/09/07 12:13:18;;;;;;;;;;;;;;;30.13;59.67;99366.72;4973645;28;19953;-87
2023/09/07 12:15:43;;;;;;;;;;;;;;;30.25;58.92;99303.59;4964048;28;19910;-87
2023/09/07 12:18:09;;;;;;;;;;;;;;;29.60;58.18;98826.25;4971267;28;19918;-87
2023/09/07 12:20:37;;;;;;;;;;;;;;;29.84;60.35;99345.41;4972130;28;20004;-87
2023/09/07 12:23:02;;;;;;;;;;;;;;;30.58;58.95;99446.19;4972156;28;20008;-87
2023/09/07 12:25:28;;;;;;;;;;;;;;;30.21;57.55;99054.94;4969430;28;20352;-87
2023/09/07 12:27:53;;;;;;;;;;;;;;;30.37;58.76;99332.38;4968080;28;19980;-87